sensor_id;sensor_type;location;lat;lon;timestamp;pressure;altitude;pressure_sealevel;temperature;humidity
78123;BME280;67376;44.802;10.332;2023-02-15T00:01:15;102472.78;;;17.51;42.99
78123;BME280;67376;44.802;10.332;2023-02-15T00:03:40;102472.78;;;17.51;42.84
78123;BME280;67376;44.802;10.332;2023-02-15T00:06:06;102474.09;;;17.55;42.80
78123;BME280;67376;44.802;10.332;2023-02-15T00:08:31;102470.75;;;17.53;42.59
78123;BME280;67376;44.802;10.332;2023-02-15T00:11:23;102468.38;;;17.50;42.59
78123;BME280;67376;44.802;10.332;2023-02-15T00:14:18;102470.91;;;17.52;42.46
78123;BME280;67376;44.802;10.332;2023-02-15T00:16:44;102471.94;;;17.50;42.67
78123;BME280;67376;44.802;10.332;2023-02-15T00:19:11;102457.94;;;17.47;42.64
78123;BME280;67376;44.802;10.332;2023-02-15T00:21:38;102462.97;;;17.50;42.78
78123;BME280;67376;44.802;10.332;2023-02-15T00:24:06;102462.31;;;17.48;42.66
78123;BME280;67376;44.802;10.332;2023-02-15T00:26:32;102461.78;;;17.53;42.43
78123;BME280;67376;44.802;10.332;2023-02-15T00:28:58;102461.78;;;17.53;42.22
78123;BME280;67376;44.802;10.332;2023-02-15T00:31:25;102461.31;;;17.49;42.75
78123;BME280;67376;44.802;10.332;2023-02-15T00:33:50;102462.13;;;17.49;42.21
78123;BME280;67376;44.802;10.332;2023-02-15T00:36:16;102468.03;;;17.53;42.06
78123;BME280;67376;44.802;10.332;2023-02-15T00:38:41;102470.06;;;17.51;42.14
78123;BME280;67376;44.802;10.332;2023-02-15T00:41:08;102473.78;;;17.50;42.48
78123;BME280;67376;44.802;10.332;2023-02-15T00:43:34;102472.59;;;17.53;42.42
78123;BME280;67376;44.802;10.332;2023-02-15T00:46:01;102462.97;;;17.50;42.23
78123;BME280;67376;44.802;10.332;2023-02-15T00:48:26;102473.97;;;17.48;42.25
78123;BME280;67376;44.802;10.332;2023-02-15T00:50:55;102477.31;;;17.50;42.51
78123;BME280;67376;44.802;10.332;2023-02-15T00:53:21;102473.59;;;17.52;42.15
78123;BME280;67376;44.802;10.332;2023-02-15T00:55:47;102469.91;;;17.44;42.17
78123;BME280;67376;44.802;10.332;2023-02-15T00:58:13;102477.19;;;17.44;42.59
78123;BME280;67376;44.802;10.332;2023-02-15T01:00:41;102480.03;;;17.50;42.17
78123;BME280;67376;44.802;10.332;2023-02-15T01:03:07;102479.22;;;17.42;42.35
78123;BME280;67376;44.802;10.332;2023-02-15T01:05:33;102484.44;;;17.43;42.63
78123;BME280;67376;44.802;10.332;2023-02-15T01:07:59;102480.38;;;17.47;41.88
78123;BME280;67376;44.802;10.332;2023-02-15T01:10:25;102479.03;;;17.43;41.75
78123;BME280;67376;44.802;10.332;2023-02-15T01:12:52;102481.22;;;17.48;42.24
78123;BME280;67376;44.802;10.332;2023-02-15T01:15:18;102468.56;;;17.48;42.17
78123;BME280;67376;44.802;10.332;2023-02-15T01:17:44;102464.53;;;17.44;42.37
78123;BME280;67376;44.802;10.332;2023-02-15T01:20:15;102461.13;;;17.50;41.89
78123;BME280;67376;44.802;10.332;2023-02-15T01:22:40;102458.94;;;17.46;42.14
78123;BME280;67376;44.802;10.332;2023-02-15T01:25:06;102464.34;;;17.46;41.96
78123;BME280;67376;44.802;10.332;2023-02-15T01:27:31;102461.16;;;17.42;42.03
78123;BME280;67376;44.802;10.332;2023-02-15T01:29:57;102451.38;;;17.41;41.85
78123;BME280;67376;44.802;10.332;2023-02-15T01:32:22;102455.41;;;17.45;41.66
78123;BME280;67376;44.802;10.332;2023-02-15T01:34:48;102457.78;;;17.40;41.94
78123;BME280;67376;44.802;10.332;2023-02-15T01:37:13;102455.44;;;17.37;42.16
78123;BME280;67376;44.802;10.332;2023-02-15T01:39:39;102456.59;;;17.43;41.78
78123;BME280;67376;44.802;10.332;2023-02-15T01:42:04;102447.81;;;17.41;41.59
78123;BME280;67376;44.802;10.332;2023-02-15T01:50:04;102444.28;;;17.40;41.89
78123;BME280;67376;44.802;10.332;2023-02-15T01:52:32;102433.66;;;17.39;41.74
78123;BME280;67376;44.802;10.332;2023-02-15T01:54:59;102446.50;;;17.37;41.59
78123;BME280;67376;44.802;10.332;2023-02-15T01:57:25;102444.28;;;17.40;41.75
78123;BME280;67376;44.802;10.332;2023-02-15T01:59:56;102444.13;;;17.42;41.69
78123;BME280;67376;44.802;10.332;2023-02-15T02:02:24;102437.56;;;17.36;41.78
78123;BME280;67376;44.802;10.332;2023-02-15T02:04:56;102436.84;;;17.42;42.11
78123;BME280;67376;44.802;10.332;2023-02-15T02:07:26;102433.84;;;17.37;41.52
78123;BME280;67376;44.802;10.332;2023-02-15T02:09:52;102424.53;;;17.40;41.91
78123;BME280;67376;44.802;10.332;2023-02-15T02:12:18;102424.22;;;17.35;41.38
78123;BME280;67376;44.802;10.332;2023-02-15T02:14:45;102420.16;;;17.39;41.97
78123;BME280;67376;44.802;10.332;2023-02-15T02:41:58;102410.19;;;17.39;41.65
78123;BME280;67376;44.802;10.332;2023-02-15T02:44:34;102419.00;;;17.33;41.82
78123;BME280;67376;44.802;10.332;2023-02-15T02:47:33;102419.31;;;17.38;41.82
78123;BME280;67376;44.802;10.332;2023-02-15T02:50:06;102412.97;;;17.31;41.51
78123;BME280;67376;44.802;10.332;2023-02-15T02:52:43;102411.44;;;17.29;41.86
78123;BME280;67376;44.802;10.332;2023-02-15T02:57:54;102405.50;;;17.33;41.71
78123;BME280;67376;44.802;10.332;2023-02-15T03:00:21;102400.66;;;17.29;41.51
78123;BME280;67376;44.802;10.332;2023-02-15T03:02:51;102408.59;;;17.30;41.38
78123;BME280;67376;44.802;10.332;2023-02-15T03:05:21;102402.00;;;17.33;41.72
78123;BME280;67376;44.802;10.332;2023-02-15T03:07:51;102403.34;;;17.29;41.82
78123;BME280;67376;44.802;10.332;2023-02-15T03:10:18;102399.63;;;17.30;41.86
78123;BME280;67376;44.802;10.332;2023-02-15T03:12:46;102390.69;;;17.29;41.80
78123;BME280;67376;44.802;10.332;2023-02-15T03:15:21;102390.22;;;17.26;41.71
78123;BME280;67376;44.802;10.332;2023-02-15T03:17:51;102384.81;;;17.26;41.68
78123;BME280;67376;44.802;10.332;2023-02-15T03:20:25;102388.34;;;17.26;41.72
78123;BME280;67376;44.802;10.332;2023-02-15T03:23:00;102388.94;;;17.36;41.66
78123;BME280;67376;44.802;10.332;2023-02-15T03:25:31;102392.22;;;17.32;41.98
78123;BME280;67376;44.802;10.332;2023-02-15T03:28:05;102391.41;;;17.23;42.07
78123;BME280;67376;44.802;10.332;2023-02-15T03:30:32;102392.38;;;17.30;41.41
78123;BME280;67376;44.802;10.332;2023-02-15T03:33:00;102402.19;;;17.23;41.19
78123;BME280;67376;44.802;10.332;2023-02-15T03:35:39;102394.41;;;17.28;41.68
78123;BME280;67376;44.802;10.332;2023-02-15T03:38:07;102396.63;;;17.25;41.41
78123;BME280;67376;44.802;10.332;2023-02-15T03:40:36;102392.56;;;17.29;41.41
78123;BME280;67376;44.802;10.332;2023-02-15T03:48:54;102397.13;;;17.28;41.40
78123;BME280;67376;44.802;10.332;2023-02-15T03:51:26;102399.31;;;17.25;41.34
78123;BME280;67376;44.802;10.332;2023-02-15T03:54:03;102394.41;;;17.28;41.61
78123;BME280;67376;44.802;10.332;2023-02-15T03:56:30;102394.75;;;17.25;41.17
78123;BME280;67376;44.802;10.332;2023-02-15T03:58:55;102403.53;;;17.27;41.20
78123;BME280;67376;44.802;10.332;2023-02-15T04:04:28;102390.38;;;17.24;41.69
78123;BME280;67376;44.802;10.332;2023-02-15T04:06:55;102401.22;;;17.16;41.91
78123;BME280;67376;44.802;10.332;2023-02-15T04:09:21;102405.75;;;17.24;41.32
78123;BME280;67376;44.802;10.332;2023-02-15T04:12:05;102403.03;;;17.24;41.66
78123;BME280;67376;44.802;10.332;2023-02-15T04:14:30;102405.91;;;17.22;41.45
78123;BME280;67376;44.802;10.332;2023-02-15T04:17:14;102394.97;;;17.15;41.21
78123;BME280;67376;44.802;10.332;2023-02-15T04:19:40;102398.47;;;17.24;41.41
78123;BME280;67376;44.802;10.332;2023-02-15T04:22:24;102408.44;;;17.24;41.81
78123;BME280;67376;44.802;10.332;2023-02-15T04:25:08;102401.84;;;17.26;41.30
78123;BME280;67376;44.802;10.332;2023-02-15T04:27:41;102402.19;;;17.23;41.53
78123;BME280;67376;44.802;10.332;2023-02-15T04:30:08;102408.44;;;17.24;41.27
78123;BME280;67376;44.802;10.332;2023-02-15T04:32:34;102402.03;;;17.25;41.08
78123;BME280;67376;44.802;10.332;2023-02-15T04:34:59;102401.88;;;17.18;41.46
78123;BME280;67376;44.802;10.332;2023-02-15T04:37:25;102391.75;;;17.20;41.33
78123;BME280;67376;44.802;10.332;2023-02-15T04:39:50;102389.22;;;17.19;41.38
78123;BME280;67376;44.802;10.332;2023-02-15T04:42:16;102388.72;;;17.15;41.78
78123;BME280;67376;44.802;10.332;2023-02-15T04:44:41;102395.47;;;17.19;41.55
78123;BME280;67376;44.802;10.332;2023-02-15T04:47:07;102397.50;;;17.17;41.44
78123;BME280;67376;44.802;10.332;2023-02-15T04:49:32;102397.66;;;17.15;41.21
78123;BME280;67376;44.802;10.332;2023-02-15T04:51:58;102397.97;;;17.21;41.14
78123;BME280;67376;44.802;10.332;2023-02-15T04:54:23;102393.09;;;17.16;41.44
78123;BME280;67376;44.802;10.332;2023-02-15T04:56:49;102399.34;;;17.16;41.09
78123;BME280;67376;44.802;10.332;2023-02-15T04:59:14;102401.72;;;17.11;41.67
78123;BME280;67376;44.802;10.332;2023-02-15T05:01:39;102393.81;;;17.10;41.59
78123;BME280;67376;44.802;10.332;2023-02-15T05:04:05;102392.09;;;17.17;41.55
78123;BME280;67376;44.802;10.332;2023-02-15T05:06:30;102404.06;;;17.14;41.71
78123;BME280;67376;44.802;10.332;2023-02-15T05:08:56;102394.66;;;17.10;41.38
78123;BME280;67376;44.802;10.332;2023-02-15T05:11:24;102402.38;;;17.13;41.22
78123;BME280;67376;44.802;10.332;2023-02-15T05:13:49;102386.88;;;17.15;41.26
78123;BME280;67376;44.802;10.332;2023-02-15T05:16:14;102386.53;;;17.19;41.58
78123;BME280;67376;44.802;10.332;2023-02-15T05:18:40;102389.22;;;17.19;41.32
78123;BME280;67376;44.802;10.332;2023-02-15T05:21:05;102384.00;;;17.17;41.76
78123;BME280;67376;44.802;10.332;2023-02-15T05:23:31;102394.97;;;17.15;41.17
78123;BME280;67376;44.802;10.332;2023-02-15T05:25:56;102387.88;;;17.14;41.20
78123;BME280;67376;44.802;10.332;2023-02-15T05:28:40;102390.91;;;17.20;41.66
78123;BME280;67376;44.802;10.332;2023-02-15T05:31:12;102389.41;;;17.17;41.57
78123;BME280;67376;44.802;10.332;2023-02-15T05:33:39;102386.69;;;17.17;41.61
78123;BME280;67376;44.802;10.332;2023-02-15T05:36:05;102386.69;;;17.17;41.38
78123;BME280;67376;44.802;10.332;2023-02-15T05:38:31;102385.50;;;17.20;41.38
78123;BME280;67376;44.802;10.332;2023-02-15T05:40:57;102388.03;;;17.21;40.85
78123;BME280;67376;44.802;10.332;2023-02-15T05:43:23;102378.56;;;17.25;41.29
78123;BME280;67376;44.802;10.332;2023-02-15T05:45:50;102379.09;;;17.21;41.22
78123;BME280;67376;44.802;10.332;2023-02-15T05:48:17;102384.00;;;17.17;41.20
78123;BME280;67376;44.802;10.332;2023-02-15T05:50:43;102387.00;;;17.22;41.78
78123;BME280;67376;44.802;10.332;2023-02-15T05:53:09;102389.03;;;17.20;41.57
78123;BME280;67376;44.802;10.332;2023-02-15T05:55:37;102392.91;;;17.26;40.97
78123;BME280;67376;44.802;10.332;2023-02-15T05:58:03;102390.91;;;17.20;41.33
78123;BME280;67376;44.802;10.332;2023-02-15T06:00:28;102387.38;;;17.19;41.08
78123;BME280;67376;44.802;10.332;2023-02-15T06:02:53;102400.00;;;17.19;40.94
78123;BME280;67376;44.802;10.332;2023-02-15T06:05:19;102391.06;;;17.26;41.33
78123;BME280;67376;44.802;10.332;2023-02-15T06:07:44;102391.91;;;17.19;41.73
78123;BME280;67376;44.802;10.332;2023-02-15T06:10:11;102394.59;;;17.27;41.47
78123;BME280;67376;44.802;10.332;2023-02-15T06:12:36;102396.78;;;17.23;41.55
78123;BME280;67376;44.802;10.332;2023-02-15T06:15:03;102396.31;;;17.20;41.27
78123;BME280;67376;44.802;10.332;2023-02-15T06:17:28;102390.72;;;17.21;41.88
78123;BME280;67376;44.802;10.332;2023-02-15T06:19:54;102394.94;;;17.24;41.85
78123;BME280;67376;44.802;10.332;2023-02-15T06:22:19;102398.66;;;17.23;41.50
78123;BME280;67376;44.802;10.332;2023-02-15T06:24:45;102389.53;;;17.24;42.02
78123;BME280;67376;44.802;10.332;2023-02-15T06:27:11;102397.63;;;17.24;41.82
78123;BME280;67376;44.802;10.332;2023-02-15T06:29:36;102391.91;;;17.27;42.13
78123;BME280;67376;44.802;10.332;2023-02-15T06:32:02;102405.91;;;17.22;41.89
78123;BME280;67376;44.802;10.332;2023-02-15T06:34:27;102408.75;;;17.29;41.90
78123;BME280;67376;44.802;10.332;2023-02-15T06:36:53;102413.47;;;17.27;41.74
78123;BME280;67376;44.802;10.332;2023-02-15T06:39:18;102418.22;;;17.25;41.57
78123;BME280;67376;44.802;10.332;2023-02-15T06:41:43;102425.81;;;17.21;42.25
78123;BME280;67376;44.802;10.332;2023-02-15T06:44:09;102425.28;;;17.26;41.91
78123;BME280;67376;44.802;10.332;2023-02-15T06:46:34;102432.22;;;17.28;41.69
78123;BME280;67376;44.802;10.332;2023-02-15T06:48:59;102427.31;;;17.24;41.74
78123;BME280;67376;44.802;10.332;2023-02-15T06:51:25;102428.72;;;17.11;38.38
78123;BME280;67376;44.802;10.332;2023-02-15T06:53:50;102419.31;;;15.94;34.03
78123;BME280;67376;44.802;10.332;2023-02-15T06:56:16;102418.97;;;15.12;32.38
78123;BME280;67376;44.802;10.332;2023-02-15T06:58:41;102429.94;;;14.67;33.32
78123;BME280;67376;44.802;10.332;2023-02-15T07:01:08;102427.38;;;14.22;32.43
78123;BME280;67376;44.802;10.332;2023-02-15T07:03:34;102425.97;;;14.00;34.66
78123;BME280;67376;44.802;10.332;2023-02-15T07:06:01;102431.97;;;14.30;33.76
78123;BME280;67376;44.802;10.332;2023-02-15T07:08:28;102428.63;;;14.71;34.50
78123;BME280;67376;44.802;10.332;2023-02-15T07:10:55;102423.19;;;15.15;35.52
78123;BME280;67376;44.802;10.332;2023-02-15T07:13:41;102434.28;;;15.46;34.46
78123;BME280;67376;44.802;10.332;2023-02-15T07:16:08;102425.78;;;15.67;35.51
78123;BME280;67376;44.802;10.332;2023-02-15T07:18:33;102437.44;;;15.83;34.96
78123;BME280;67376;44.802;10.332;2023-02-15T07:20:59;102432.59;;;15.95;35.68
78123;BME280;67376;44.802;10.332;2023-02-15T07:23:24;102430.78;;;16.04;35.15
78123;BME280;67376;44.802;10.332;2023-02-15T07:25:57;102441.06;;;16.16;35.45
78123;BME280;67376;44.802;10.332;2023-02-15T07:28:22;102437.84;;;16.21;35.76
78123;BME280;67376;44.802;10.332;2023-02-15T07:30:47;102434.16;;;16.30;35.39
78123;BME280;67376;44.802;10.332;2023-02-15T07:33:13;102442.75;;;16.34;35.33
78123;BME280;67376;44.802;10.332;2023-02-15T07:35:54;102437.72;;;16.55;35.74
78123;BME280;67376;44.802;10.332;2023-02-15T07:38:20;102442.47;;;16.69;35.92
78123;BME280;67376;44.802;10.332;2023-02-15T07:40:46;102442.06;;;16.89;35.70
78123;BME280;67376;44.802;10.332;2023-02-15T07:43:13;102442.56;;;17.00;35.98
78123;BME280;67376;44.802;10.332;2023-02-15T07:45:39;102438.66;;;17.11;36.64
78123;BME280;67376;44.802;10.332;2023-02-15T07:48:05;102444.03;;;17.19;36.48
78123;BME280;67376;44.802;10.332;2023-02-15T07:50:31;102446.06;;;17.25;36.56
78123;BME280;67376;44.802;10.332;2023-02-15T07:52:57;102438.09;;;17.32;36.44
78123;BME280;67376;44.802;10.332;2023-02-15T07:55:22;102442.09;;;17.36;37.10
78123;BME280;67376;44.802;10.332;2023-02-15T07:57:49;102439.91;;;17.39;36.55
78123;BME280;67376;44.802;10.332;2023-02-15T08:00:16;102444.78;;;17.44;36.85
78123;BME280;67376;44.802;10.332;2023-02-15T08:02:47;102445.28;;;17.47;36.84
78123;BME280;67376;44.802;10.332;2023-02-15T08:05:13;102436.69;;;17.44;36.94
78123;BME280;67376;44.802;10.332;2023-02-15T08:07:39;102430.41;;;17.52;37.32
78123;BME280;67376;44.802;10.332;2023-02-15T08:10:05;102432.25;;;17.51;36.98
78123;BME280;67376;44.802;10.332;2023-02-15T08:12:30;102439.66;;;17.57;36.82
78123;BME280;67376;44.802;10.332;2023-02-15T08:14:56;102435.94;;;17.58;37.30
78123;BME280;67376;44.802;10.332;2023-02-15T08:17:21;102437.81;;;17.58;37.63
78123;BME280;67376;44.802;10.332;2023-02-15T08:19:47;102436.31;;;17.55;37.24
78123;BME280;67376;44.802;10.332;2023-02-15T08:22:14;102443.03;;;17.59;37.66
78123;BME280;67376;44.802;10.332;2023-02-15T08:24:40;102433.41;;;17.57;37.62
78123;BME280;67376;44.802;10.332;2023-02-15T08:27:07;102433.75;;;17.62;37.92
78123;BME280;67376;44.802;10.332;2023-02-15T08:29:34;102432.22;;;17.59;37.94
78123;BME280;67376;44.802;10.332;2023-02-15T08:32:06;102433.56;;;17.63;37.75
78123;BME280;67376;44.802;10.332;2023-02-15T08:34:34;102430.88;;;17.63;37.67
78123;BME280;67376;44.802;10.332;2023-02-15T08:37:00;102425.63;;;17.62;38.27
78123;BME280;67376;44.802;10.332;2023-02-15T08:39:26;102432.41;;;17.66;38.06
78123;BME280;67376;44.802;10.332;2023-02-15T08:41:51;102433.75;;;17.62;38.15
78123;BME280;67376;44.802;10.332;2023-02-15T08:44:18;102433.91;;;17.60;38.64
78123;BME280;67376;44.802;10.332;2023-02-15T08:46:45;102438.97;;;17.63;38.52
78123;BME280;67376;44.802;10.332;2023-02-15T08:49:20;102444.38;;;17.63;38.42
78123;BME280;67376;44.802;10.332;2023-02-15T08:51:47;102445.91;;;17.58;38.86
78123;BME280;67376;44.802;10.332;2023-02-15T08:54:15;102444.22;;;17.57;39.14
78123;BME280;67376;44.802;10.332;2023-02-15T08:56:42;102449.13;;;17.53;38.92
78123;BME280;67376;44.802;10.332;2023-02-15T08:59:18;102442.53;;;17.56;39.18
78123;BME280;67376;44.802;10.332;2023-02-15T09:01:45;102446.25;;;17.55;39.37
78123;BME280;67376;44.802;10.332;2023-02-15T09:04:11;102444.06;;;17.58;39.83
78123;BME280;67376;44.802;10.332;2023-02-15T09:06:39;102448.28;;;17.53;39.39
78123;BME280;67376;44.802;10.332;2023-02-15T09:09:05;102443.22;;;17.66;39.20
78123;BME280;67376;44.802;10.332;2023-02-15T09:11:38;102437.81;;;17.66;39.46
78123;BME280;67376;44.802;10.332;2023-02-15T09:14:24;102442.19;;;17.59;39.48
78123;BME280;67376;44.802;10.332;2023-02-15T09:16:52;102439.19;;;17.54;39.58
78123;BME280;67376;44.802;10.332;2023-02-15T09:19:18;102445.69;;;17.75;39.40
78123;BME280;67376;44.802;10.332;2023-02-15T09:21:44;102445.53;;;17.77;39.30
78123;BME280;67376;44.802;10.332;2023-02-15T09:24:12;102445.16;;;17.80;39.51
78123;BME280;67376;44.802;10.332;2023-02-15T09:26:40;102440.81;;;17.71;39.95
78123;BME280;67376;44.802;10.332;2023-02-15T09:29:07;102448.88;;;17.79;39.25
78123;BME280;67376;44.802;10.332;2023-02-15T09:31:37;102441.66;;;17.71;39.60
78123;BME280;67376;44.802;10.332;2023-02-15T09:34:02;102441.16;;;17.68;39.57
78123;BME280;67376;44.802;10.332;2023-02-15T09:38:58;102441.81;;;17.78;38.94
78123;BME280;67376;44.802;10.332;2023-02-15T09:55:24;102446.66;;;17.83;38.99
78123;BME280;67376;44.802;10.332;2023-02-15T10:00:43;102441.09;;;17.84;39.33
78123;BME280;67376;44.802;10.332;2023-02-15T10:03:45;102438.88;;;17.88;39.20
78123;BME280;67376;44.802;10.332;2023-02-15T10:06:29;102438.88;;;17.88;39.04
78123;BME280;67376;44.802;10.332;2023-02-15T10:09:02;102434.31;;;17.88;39.78
78123;BME280;67376;44.802;10.332;2023-02-15T10:14:40;102435.34;;;17.87;39.62
78123;BME280;67376;44.802;10.332;2023-02-15T10:22:46;102427.91;;;17.89;39.94
78123;BME280;67376;44.802;10.332;2023-02-15T10:27:48;102424.34;;;17.89;39.42
78123;BME280;67376;44.802;10.332;2023-02-15T10:30:18;102420.13;;;17.86;39.79
78123;BME280;67376;44.802;10.332;2023-02-15T10:33:01;102420.63;;;17.90;39.43
78123;BME280;67376;44.802;10.332;2023-02-15T10:35:36;102413.53;;;17.89;40.16
78123;BME280;67376;44.802;10.332;2023-02-15T10:38:20;102405.44;;;17.89;39.54
78123;BME280;67376;44.802;10.332;2023-02-15T10:43:52;102398.81;;;17.91;40.49
78123;BME280;67376;44.802;10.332;2023-02-15T10:46:49;102394.63;;;17.89;39.98
78123;BME280;67376;44.802;10.332;2023-02-15T10:55:19;102390.91;;;17.90;40.23
78123;BME280;67376;44.802;10.332;2023-02-15T10:58:05;102389.41;;;17.87;40.04
78123;BME280;67376;44.802;10.332;2023-02-15T11:06:19;102378.94;;;17.84;40.69
78123;BME280;67376;44.802;10.332;2023-02-15T11:08:55;102378.59;;;17.87;40.92
78123;BME280;67376;44.802;10.332;2023-02-15T11:11:37;102374.88;;;17.88;40.06
78123;BME280;67376;44.802;10.332;2023-02-15T11:14:12;102367.00;;;17.78;41.03
78123;BME280;67376;44.802;10.332;2023-02-15T11:16:45;102363.94;;;17.81;41.04
78123;BME280;67376;44.802;10.332;2023-02-15T11:19:24;102356.19;;;17.78;41.09
78123;BME280;67376;44.802;10.332;2023-02-15T11:21:57;102358.06;;;17.78;40.92
78123;BME280;67376;44.802;10.332;2023-02-15T11:24:26;102343.69;;;17.77;41.22
78123;BME280;67376;44.802;10.332;2023-02-15T11:26:57;102344.00;;;17.83;41.39
78123;BME280;67376;44.802;10.332;2023-02-15T11:29:32;102347.44;;;17.76;40.94
78123;BME280;67376;44.802;10.332;2023-02-15T11:32:12;102340.16;;;17.77;41.35
78123;BME280;67376;44.802;10.332;2023-02-15T11:35:03;102338.19;;;17.71;40.79
78123;BME280;67376;44.802;10.332;2023-02-15T11:37:37;102332.94;;;17.69;40.55
78123;BME280;67376;44.802;10.332;2023-02-15T11:40:31;102333.63;;;17.71;40.95
78123;BME280;67376;44.802;10.332;2023-02-15T11:43:03;102332.78;;;17.71;41.15
78123;BME280;67376;44.802;10.332;2023-02-15T11:45:32;102326.00;;;17.75;40.80
78123;BME280;67376;44.802;10.332;2023-02-15T11:47:58;102314.66;;;17.79;40.73
78123;BME280;67376;44.802;10.332;2023-02-15T11:50:27;102324.63;;;17.79;40.14
78123;BME280;67376;44.802;10.332;2023-02-15T11:53:00;102311.94;;;17.79;40.38
78123;BME280;67376;44.802;10.332;2023-02-15T11:55:27;102308.88;;;17.83;40.75
78123;BME280;67376;44.802;10.332;2023-02-15T12:00:32;102298.75;;;17.85;40.68
78123;BME280;67376;44.802;10.332;2023-02-15T12:03:48;102291.34;;;17.78;41.01
78123;BME280;67376;44.802;10.332;2023-02-15T12:05:49;102293.03;;;17.79;40.79
78123;BME280;67376;44.802;10.332;2023-02-15T12:08:19;102288.28;;;17.81;40.44
78123;BME280;67376;44.802;10.332;2023-02-15T12:10:55;102289.31;;;17.80;40.77
78123;BME280;67376;44.802;10.332;2023-02-15T12:13:22;102283.72;;;17.82;41.09
78123;BME280;67376;44.802;10.332;2023-02-15T12:15:50;102285.59;;;17.81;40.84
78123;BME280;67376;44.802;10.332;2023-02-15T12:20:51;102275.25;;;17.85;41.00
78123;BME280;67376;44.802;10.332;2023-02-15T12:23:17;102278.81;;;17.86;40.76
78123;BME280;67376;44.802;10.332;2023-02-15T12:25:53;102279.00;;;17.84;40.88
78123;BME280;67376;44.802;10.332;2023-02-15T12:28:32;102268.66;;;17.88;40.47
78123;BME280;67376;44.802;10.332;2023-02-15T12:30:59;102274.50;;;17.91;40.96
78123;BME280;67376;44.802;10.332;2023-02-15T12:33:35;102265.13;;;17.87;40.87
78123;BME280;67376;44.802;10.332;2023-02-15T12:36:09;102261.84;;;17.92;40.82
78123;BME280;67376;44.802;10.332;2023-02-15T12:38:35;102257.50;;;17.91;40.59
78123;BME280;67376;44.802;10.332;2023-02-15T12:41:03;102266.22;;;17.93;40.57
78123;BME280;67376;44.802;10.332;2023-02-15T12:43:33;102258.97;;;17.93;41.10
78123;BME280;67376;44.802;10.332;2023-02-15T12:46:21;102255.81;;;17.90;41.06
78123;BME280;67376;44.802;10.332;2023-02-15T12:49:05;102254.56;;;17.92;40.79
78123;BME280;67376;44.802;10.332;2023-02-15T12:51:42;102241.91;;;17.93;41.12
78123;BME280;67376;44.802;10.332;2023-02-15T12:56:54;102243.41;;;17.95;41.05
78123;BME280;67376;44.802;10.332;2023-02-15T12:59:19;102236.31;;;17.94;41.28
78123;BME280;67376;44.802;10.332;2023-02-15T13:01:46;102225.31;;;17.96;41.46
78123;BME280;67376;44.802;10.332;2023-02-15T13:04:26;102230.72;;;17.96;41.09
78123;BME280;67376;44.802;10.332;2023-02-15T13:06:56;102231.94;;;17.93;41.50
78123;BME280;67376;44.802;10.332;2023-02-15T13:12:21;102219.25;;;17.94;41.72
78123;BME280;67376;44.802;10.332;2023-02-15T13:14:50;102201.78;;;17.90;41.65
78123;BME280;67376;44.802;10.332;2023-02-15T13:17:25;102206.41;;;17.96;41.20
78123;BME280;67376;44.802;10.332;2023-02-15T13:19:56;102200.16;;;17.95;41.45
78123;BME280;67376;44.802;10.332;2023-02-15T13:22:33;102199.25;;;17.88;41.97
78123;BME280;67376;44.802;10.332;2023-02-15T13:25:04;102189.47;;;17.87;41.91
78123;BME280;67376;44.802;10.332;2023-02-15T13:27:38;102184.25;;;17.86;42.18
78123;BME280;67376;44.802;10.332;2023-02-15T13:30:43;102193.25;;;17.93;42.19
78123;BME280;67376;44.802;10.332;2023-02-15T13:36:21;102185.63;;;17.96;42.02
78123;BME280;67376;44.802;10.332;2023-02-15T13:42:03;102182.09;;;17.96;41.99
78123;BME280;67376;44.802;10.332;2023-02-15T13:52:47;102178.28;;;17.90;42.04
78123;BME280;67376;44.802;10.332;2023-02-15T13:55:37;102179.38;;;17.96;42.41
78123;BME280;67376;44.802;10.332;2023-02-15T14:01:07;102166.66;;;17.90;42.66
78123;BME280;67376;44.802;10.332;2023-02-15T14:14:10;102168.22;;;17.99;41.80
78123;BME280;67376;44.802;10.332;2023-02-15T14:19:31;102169.53;;;17.88;42.05
78123;BME280;67376;44.802;10.332;2023-02-15T14:23:14;102160.94;;;17.85;42.21
78123;BME280;67376;44.802;10.332;2023-02-15T14:30:20;102154.34;;;17.87;40.45
78123;BME280;67376;44.802;10.332;2023-02-15T14:32:49;102144.19;;;17.89;40.00
78123;BME280;67376;44.802;10.332;2023-02-15T14:35:20;102151.00;;;17.85;40.32
78123;BME280;67376;44.802;10.332;2023-02-15T14:38:02;102150.81;;;17.87;40.62
78123;BME280;67376;44.802;10.332;2023-02-15T14:49:09;102136.53;;;17.93;40.05
78123;BME280;67376;44.802;10.332;2023-02-15T14:59:37;102130.50;;;17.91;40.79
78123;BME280;67376;44.802;10.332;2023-02-15T15:07:22;102126.97;;;17.90;41.12
78123;BME280;67376;44.802;10.332;2023-02-15T15:09:59;102127.81;;;17.91;40.52
78123;BME280;67376;44.802;10.332;2023-02-15T15:14:51;102114.28;;;17.91;40.69
78123;BME280;67376;44.802;10.332;2023-02-15T15:17:54;102118.63;;;17.92;41.30
78123;BME280;67376;44.802;10.332;2023-02-15T15:31:20;102109.13;;;17.96;40.99
78123;BME280;67376;44.802;10.332;2023-02-15T15:37:08;102105.72;;;17.87;41.18
78123;BME280;67376;44.802;10.332;2023-02-15T15:42:51;102114.06;;;17.92;41.41
78123;BME280;67376;44.802;10.332;2023-02-15T15:50:43;102115.75;;;17.93;41.02
78123;BME280;67376;44.802;10.332;2023-02-15T15:53:20;102114.91;;;17.93;40.67
78123;BME280;67376;44.802;10.332;2023-02-15T15:55:49;102118.25;;;17.95;40.77